Terminal Aerodrome Forecast
Issued by NWS

Home | Current Version | Previous Version | Text Only | Print | Product List | Glossary On
Versions: 1 2 3 4 5 6 7 8 9 10 11 12 13 14 15 16 17 18 19 20 21 22 23 24 25 26 27 28 29
000
FTUS45 KGJT 291120
TAFMTJ
TAF
KMTJ 291120Z 2912/3012 17007KT P6SM FEW110
     FM291500 VRB03KT P6SM FEW110 SCT250
     FM291800 33006KT P6SM FEW110 SCT250
     FM292200 20008KT P6SM FEW110 SCT250
     FM300200 14007KT P6SM SCT200=

USA.gov is the U.S. government's official web portal to all federal, state and local government web resources and services.